CheckWX is a tool to help pilots better visualize weather data.  It is not intended as a substitute for an official pre-flight weather briefing.

07:56:25 UTC

KBOS METAR
General Edward Lawrence Logan International Airport
Boston, Massachusetts, USA
Current

1 hour ago

KBOS 290654Z 21010KT 10SM OVC008 20/19 A3006 RMK AO2 SLP179 T02000189
Observed
May-29 @ 06:54 UTC
Wind
  • 210° at 10 KTS
Visibility
Flight Rules
IFR
Cloud Levels
  • Overcast at 800' AGL
Temperature
20°C / 68°F
Dewpoint
19°C / 66°F
Humidity
94%
Altimeter
30.06" Hg
Pressure
1017.92 hPa
Previous

2 hours ago

KBOS 290554Z 20009KT 10SM OVC009 20/19 A3006 RMK AO2 SLP179 T02000189 10222 20194 56017
Observed
May-29 @ 05:54 UTC
Wind
  • 200° at 9 KTS
Visibility
Flight Rules
IFR
Cloud Levels
  • Overcast at 900' AGL
Temperature
20°C / 68°F
Dewpoint
19°C / 66°F
Humidity
94%
Altimeter
30.06" Hg
Pressure
1017.92 hPa
Previous

3 hours ago

KBOS 290454Z 20012KT 10SM OVC011 19/18 A3007 RMK AO2 SLP182 T01940183 402560178
Observed
May-29 @ 04:54 UTC
Wind
  • 200° at 12 KTS
Visibility
Flight Rules
MVFR
Cloud Levels
  • Overcast at 1,100' AGL
Dewpoint
18°C / 64°F
Humidity
94%
Altimeter
30.07" Hg
Pressure
1018.32 hPa